Time;durP1;ratioP1;P1;durP2;ratioP2;P2;SDS_P1;SDS_P2;PMS_P1;PMS_P2;Temp;Humidity;BMP_temperature;BMP_pressure;BME280_temperature;BME280_humidity;BME280_pressure;Samples;Min_cycle;Max_cycle;Signal;HPM_P1;HPM_P2
2022/04/30 10:06:13;;;;;;;12.40;8.90;;;;;;;19.05;36.99;97290.92;98493;1289;965417;-76
2022/04/30 10:08:45;;;;;;;13.20;9.80;;;;;;;19.07;36.75;97296.70;105117;1290;221314;-79
2022/04/30 10:11:26;;;;;;;12.10;9.40;;;;;;;19.14;36.88;97290.52;105525;1290;130266;-79
2022/04/30 10:14:03;;;;;;;;;;;;;;;19.26;37.18;97285.48;103909;1290;2094683;-78
2022/04/30 10:16:34;;;;;;;12.90;10.00;;;;;;;19.40;37.06;97284.04;105181;1290;160576;-78
2022/04/30 10:19:16;;;;;;;13.70;9.50;;;;;;;19.57;37.02;97284.75;104306;1290;1551877;-78
2022/04/30 10:22:08;;;;;;;12.20;9.50;;;;;;;19.87;36.66;97285.20;104121;1288;1807560;-79
2022/04/30 10:24:45;;;;;;;13.20;9.90;;;;;;;20.17;36.86;97279.64;105301;1288;212928;-79
2022/04/30 10:27:17;;;;;;;13.90;9.70;;;;;;;20.51;36.99;97273.19;105532;1288;121790;-83
2022/04/30 10:29:56;;;;;;;14.10;10.60;;;;;;;20.74;36.65;97267.88;105929;1287;104678;-83
2022/04/30 10:32:37;;;;;;;13.60;9.60;;;;;;;20.57;36.03;97266.56;106025;1287;32685;-83
2022/04/30 10:35:09;;;;;;;13.00;9.50;;;;;;;20.26;35.95;97266.16;106091;1288;31195;-84
2022/04/30 10:37:41;;;;;;;14.00;11.10;;;;;;;20.13;35.46;97260.88;106051;1287;44451;-85
2022/04/30 10:40:12;;;;;;;12.60;9.60;;;;;;;19.41;35.06;97259.33;105911;1288;54758;-83
2022/04/30 10:42:45;;;;;;;11.80;9.50;;;;;;;19.21;36.99;97256.07;105861;1288;40491;-78
2022/04/30 10:45:16;;;;;;;12.40;9.70;;;;;;;19.56;37.06;97254.98;105858;1288;49891;-76
2022/04/30 10:47:54;;;;;;;11.90;9.70;;;;;;;19.78;37.70;97253.44;105982;1287;35947;-77
2022/04/30 10:50:25;;;;;;;13.60;10.10;;;;;;;20.08;36.86;97251.77;105872;1287;35943;-78
2022/04/30 10:52:57;;;;;;;14.10;10.70;;;;;;;20.00;36.77;97250.30;105880;1288;37815;-78
2022/04/30 10:55:29;;;;;;;15.00;10.00;;;;;;;20.03;36.53;97249.48;105995;1287;34790;-79
2022/04/30 10:58:00;;;;;;;14.60;9.70;;;;;;;19.93;37.39;97244.84;105997;1287;43719;-83
2022/04/30 11:00:31;;;;;;;11.80;10.10;;;;;;;19.82;36.32;97244.75;105666;1287;486190;-84
2022/04/30 11:03:12;;;;;;;15.60;9.90;;;;;;;19.52;37.01;97242.23;105951;1287;41151;-84
2022/04/30 11:05:49;;;;;;;11.70;9.80;;;;;;;19.50;37.99;97239.50;105993;1288;40111;-82
2022/04/30 11:08:20;;;;;;;11.30;9.30;;;;;;;19.60;37.60;97238.57;105987;1288;31618;-81
2022/04/30 11:10:55;;;;;;;10.50;9.10;;;;;;;19.79;38.22;97237.30;105922;1288;41144;-80
2022/04/30 11:13:26;;;;;;;12.40;10.50;;;;;;;20.08;38.44;97234.89;105973;1288;48304;-80
2022/04/30 11:16:00;;;;;;;11.90;10.00;;;;;;;20.06;36.57;97234.84;105879;1288;58680;-82
2022/04/30 11:18:31;;;;;;;12.60;10.30;;;;;;;19.59;36.05;97239.18;105972;1288;42548;-84
2022/04/30 11:21:03;;;;;;;10.40;9.00;;;;;;;18.67;36.05;97235.55;105960;1287;42452;-83
2022/04/30 11:23:34;;;;;;;11.20;9.20;;;;;;;18.39;37.44;97232.95;105905;1287;60933;-83
2022/04/30 11:26:16;;;;;;;12.20;9.60;;;;;;;18.11;36.81;97231.75;105833;1287;33733;-83
2022/04/30 11:28:49;;;;;;;12.40;9.90;;;;;;;17.97;37.69;97229.67;105942;1288;37907;-81
2022/04/30 11:31:22;;;;;;;11.40;9.60;;;;;;;17.79;37.70;97227.44;105962;1288;31660;-83
2022/04/30 11:33:53;;;;;;;12.20;10.00;;;;;;;17.80;38.19;97220.71;100788;1288;5384768;-83
2022/04/30 11:36:24;;;;;;;12.50;9.50;;;;;;;17.74;37.88;97219.20;106100;1288;31850;-80
2022/04/30 11:38:57;;;;;;;16.20;9.80;;;;;;;17.42;37.90;97216.25;106078;1288;58033;-78
2022/04/30 11:41:29;;;;;;;9.30;8.20;;;;;;;17.47;39.57;97214.41;106076;1288;46816;-78
2022/04/30 11:44:02;;;;;;;11.70;9.20;;;;;;;17.91;39.38;97211.23;106119;1288;39386;-78
2022/04/30 11:46:40;;;;;;;11.70;8.50;;;;;;;18.32;38.80;97206.73;106173;1288;47220;-79
2022/04/30 11:49:16;;;;;;;10.40;7.80;;;;;;;18.34;37.42;97203.29;106003;1288;35275;-78
2022/04/30 11:51:48;;;;;;;10.70;8.30;;;;;;;18.44;38.06;97201.02;105993;1288;36069;-78
2022/04/30 11:54:21;;;;;;;10.30;8.10;;;;;;;18.66;37.24;97197.14;106010;1288;32650;-79
2022/04/30 11:56:52;;;;;;;10.20;7.70;;;;;;;18.80;38.06;97194.31;105999;1288;33367;-79
2022/04/30 11:59:32;;;;;;;10.90;7.60;;;;;;;19.07;38.17;97191.06;105905;1288;35289;-79
2022/04/30 12:02:05;;;;;;;10.80;7.60;;;;;;;19.30;37.14;97193.34;105754;1288;81025;-78
2022/04/30 12:04:41;;;;;;;10.60;7.80;;;;;;;19.24;36.49;97189.92;106470;1288;47685;-78
2022/04/30 12:07:14;;;;;;;12.10;7.90;;;;;;;19.27;37.57;97182.77;106266;1288;29714;-76
2022/04/30 12:09:50;;;;;;;12.40;8.30;;;;;;;19.44;37.88;97180.55;106077;1288;43547;-78
2022/04/30 12:12:22;;;;;;;9.20;7.40;;;;;;;19.43;37.21;97176.21;106016;1288;45748;-80
2022/04/30 12:14:58;;;;;;;12.10;8.40;;;;;;;19.46;37.69;97176.88;105934;1288;59786;-79
2022/04/30 12:17:34;;;;;;;13.60;8.30;;;;;;;19.41;36.83;97175.20;105970;1288;35990;-80
2022/04/30 12:26:09;;;;;;;9.80;7.50;;;;;;;19.60;37.10;97169.71;105875;1288;90723;-76
2022/04/30 12:28:53;;;;;;;10.70;7.80;;;;;;;19.64;37.13;97165.86;105966;1288;82778;-76
2022/04/30 12:31:25;;;;;;;12.00;8.20;;;;;;;19.68;36.12;97161.10;105992;1288;56963;-76
2022/04/30 12:33:56;;;;;;;10.60;8.30;;;;;;;19.59;36.51;97162.50;106165;1288;38508;-75
2022/04/30 12:36:27;;;;;;;9.20;7.60;;;;;;;19.43;35.63;97158.95;105860;1288;39676;-75
2022/04/30 12:38:59;;;;;;;12.10;7.60;;;;;;;19.16;35.77;97159.72;106151;1288;36518;-75
2022/04/30 12:41:31;;;;;;;11.70;8.40;;;;;;;18.47;35.05;97156.09;106036;1287;51990;-75
2022/04/30 12:44:02;;;;;;;12.00;8.10;;;;;;;18.01;36.71;97154.29;106008;1288;56064;-76
2022/04/30 12:46:33;;;;;;;11.00;7.80;;;;;;;18.03;37.91;97151.33;105645;1287;61728;-76
2022/04/30 12:49:04;;;;;;;9.40;7.70;;;;;;;18.25;38.05;97155.32;105797;1287;62848;-77
2022/04/30 12:51:35;;;;;;;10.40;7.30;;;;;;;18.43;38.00;97159.27;105849;1288;64716;-77
2022/04/30 12:54:06;;;;;;;9.90;7.50;;;;;;;18.46;37.09;97163.01;105988;1288;67105;-77
2022/04/30 12:56:38;;;;;;;10.20;6.80;;;;;;;18.40;37.26;97158.69;105904;1288;74053;-76
2022/04/30 12:59:09;;;;;;;10.00;7.70;;;;;;;18.43;36.94;97159.61;106061;1284;149342;-80
2022/04/30 13:01:41;;;;;;;10.20;7.20;;;;;;;18.43;37.73;97157.56;105034;1284;1505757;-80
2022/04/30 13:04:13;;;;;;;9.00;7.00;;;;;;;18.54;38.11;97160.13;105022;1285;1145898;-80
2022/04/30 13:06:47;;;;;;;8.90;7.20;;;;;;;18.62;38.01;97155.52;105816;1285;175781;-80
2022/04/30 13:14:56;;;;;;;10.20;7.60;;;;;;;18.49;37.67;97148.34;105786;1285;157188;-81
2022/04/30 13:17:27;;;;;;;10.50;6.90;;;;;;;18.41;37.76;97150.73;106226;1285;74361;-78
2022/04/30 13:20:00;;;;;;;9.70;7.80;;;;;;;18.26;37.13;97145.17;104961;1285;1775002;-79
2022/04/30 13:22:31;;;;;;;10.40;6.90;;;;;;;18.06;37.66;97141.59;104830;1285;2023641;-79
2022/04/30 13:25:02;;;;;;;11.80;7.30;;;;;;;18.07;38.11;97141.07;104903;1285;2048968;-79
2022/04/30 13:27:33;;;;;;;12.60;7.50;;;;;;;18.02;37.75;97138.29;106341;1285;41430;-79
2022/04/30 13:30:05;;;;;;;11.60;7.70;;;;;;;17.90;37.93;97141.96;106017;1285;233976;-79
2022/04/30 13:32:36;;;;;;;10.30;7.50;;;;;;;17.73;37.52;97140.23;105956;1285;145506;-79
2022/04/30 13:35:09;;;;;;;11.80;7.10;;;;;;;17.64;38.12;97139.02;106305;1285;80010;-79
2022/04/30 13:37:42;;;;;;;9.80;7.00;;;;;;;17.61;37.88;97135.38;106445;1284;36140;-78
2022/04/30 13:40:15;;;;;;;13.30;7.50;;;;;;;17.61;38.09;97135.38;106338;1284;138134;-78
2022/04/30 13:42:46;;;;;;;11.60;7.90;;;;;;;17.59;38.27;97134.31;105679;1284;1288575;-78
2022/04/30 13:45:20;;;;;;;10.80;7.80;;;;;;;17.55;38.10;97127.14;105597;1283;1258893;-78
2022/04/30 13:47:52;;;;;;;14.00;8.00;;;;;;;17.50;38.09;97131.52;105125;1284;2054829;-81
2022/04/30 13:50:23;;;;;;;10.20;6.90;;;;;;;17.47;38.30;97125.30;106465;1284;130332;-81
2022/04/30 13:52:55;;;;;;;12.50;6.70;;;;;;;17.47;38.19;97125.10;106250;1284;196699;-81
2022/04/30 13:55:26;;;;;;;8.40;6.90;;;;;;;17.43;38.28;97124.98;106160;1284;160878;-80
2022/04/30 13:57:57;;;;;;;9.60;7.00;;;;;;;17.36;38.13;97125.71;106249;1284;108826;-81
2022/04/30 14:00:29;;;;;;;9.80;6.40;;;;;;;17.30;38.39;97126.81;106313;1284;149245;-80
2022/04/30 14:03:00;;;;;;;9.90;6.60;;;;;;;17.27;38.24;97125.52;106268;1284;98769;-80
2022/04/30 14:05:32;;;;;;;9.10;6.40;;;;;;;17.25;38.50;97126.33;104964;1284;1760990;-81
2022/04/30 14:08:04;;;;;;;10.40;6.90;;;;;;;17.26;38.69;97122.23;106515;1284;113329;-81
2022/04/30 14:10:35;;;;;;;13.00;6.90;;;;;;;17.28;38.72;97124.41;104029;1284;1816789;-81
2022/04/30 14:15:55;;;;;;;10.40;6.70;;;;;;;17.27;38.91;97119.20;106308;1284;185789;-81
2022/04/30 14:18:29;;;;;;;10.20;7.20;;;;;;;17.23;38.49;97120.17;104885;1284;2279127;-81
2022/04/30 14:21:08;;;;;;;8.60;6.00;;;;;;;17.15;38.27;97118.71;106328;1285;55019;-81
2022/04/30 14:23:47;;;;;;;8.60;6.30;;;;;;;17.08;38.35;97126.02;104762;1284;2327470;-80
2022/04/30 14:26:18;;;;;;;10.70;6.40;;;;;;;17.02;38.38;97119.46;104724;1284;2091626;-81
2022/04/30 14:28:50;;;;;;;10.50;6.60;;;;;;;16.96;38.72;97119.72;100554;1284;5199109;-81
2022/04/30 14:31:22;;;;;;;9.80;7.00;;;;;;;16.99;38.77;97122.21;106163;1284;134328;-83
2022/04/30 14:33:53;;;;;;;11.40;6.60;;;;;;;16.95;38.42;97122.92;103412;1284;2084878;-80
2022/04/30 14:36:24;;;;;;;8.80;7.00;;;;;;;16.90;38.63;97124.61;106146;1284;124982;-82
2022/04/30 14:38:57;;;;;;;9.20;6.90;;;;;;;16.91;38.66;97124.05;106059;1284;204911;-81
2022/04/30 14:41:29;;;;;;;11.00;6.80;;;;;;;16.99;38.69;97122.44;105284;1283;1426003;-81
2022/04/30 14:44:00;;;;;;;8.80;6.70;;;;;;;17.25;39.01;97117.52;106031;1284;157970;-82
2022/04/30 14:46:32;;;;;;;13.30;7.30;;;;;;;17.50;39.07;97118.42;106317;1284;122969;-81
2022/04/30 14:49:03;;;;;;;12.00;6.50;;;;;;;17.73;39.36;97113.95;106184;1284;222824;-82
2022/04/30 14:51:34;;;;;;;10.30;6.70;;;;;;;17.91;39.19;97111.29;106200;1284;223779;-81
2022/04/30 14:54:08;;;;;;;8.80;6.00;;;;;;;18.06;38.84;97112.77;103459;1283;1905382;-81
2022/04/30 14:56:41;;;;;;;9.00;6.50;;;;;;;18.08;38.61;97112.92;104487;1284;1440055;-82
2022/04/30 14:59:14;;;;;;;12.50;7.00;;;;;;;18.03;37.84;97108.40;105421;1284;1357673;-81
2022/04/30 15:01:46;;;;;;;11.50;6.80;;;;;;;18.00;37.81;97109.45;104524;1284;2031106;-81
2022/04/30 15:04:17;;;;;;;10.50;6.90;;;;;;;17.94;37.66;97110.81;105076;1285;1799247;-82
2022/04/30 15:06:48;;;;;;;9.50;7.50;;;;;;;17.93;37.56;97107.15;105099;1283;1593924;-82
2022/04/30 15:09:21;;;;;;;8.40;6.50;;;;;;;17.85;36.45;97106.00;103515;1284;1980033;-81
2022/04/30 15:11:53;;;;;;;10.10;6.80;;;;;;;17.56;37.12;97103.52;106305;1284;116099;-82
2022/04/30 15:14:24;;;;;;;10.20;7.00;;;;;;;17.50;37.15;97103.26;106048;1283;224074;-81
2022/04/30 15:16:55;;;;;;;13.30;6.80;;;;;;;17.49;37.94;97105.74;106151;1284;162774;-81
2022/04/30 15:19:28;;;;;;;10.60;6.70;;;;;;;17.59;37.86;97106.21;106197;1284;194786;-81
2022/04/30 15:22:01;;;;;;;9.80;7.00;;;;;;;17.70;37.92;97104.15;106255;1284;154254;-81
2022/04/30 15:24:32;;;;;;;11.40;6.70;;;;;;;17.77;37.89;97099.77;104652;1284;2078596;-82
2022/04/30 15:27:04;;;;;;;11.90;6.90;;;;;;;17.79;37.70;97097.79;105524;1284;1246832;-81
2022/04/30 15:29:36;;;;;;;9.20;6.00;;;;;;;17.83;37.16;97097.09;106097;1284;145987;-81
2022/04/30 15:32:09;;;;;;;11.80;6.30;;;;;;;17.63;37.41;97097.70;106097;1284;208351;-82
2022/04/30 15:34:40;;;;;;;10.10;6.50;;;;;;;17.62;37.27;97095.41;106445;1284;116251;-82
2022/04/30 15:37:11;;;;;;;14.10;7.30;;;;;;;17.54;36.77;97095.10;106187;1285;173062;-83
2022/04/30 15:39:44;;;;;;;10.90;6.70;;;;;;;17.35;37.05;97092.67;106273;1284;2037017;-79
2022/04/30 15:42:15;;;;;;;9.70;6.40;;;;;;;17.34;37.70;97089.08;104445;1284;2044693;-82
2022/04/30 15:44:47;;;;;;;10.60;6.80;;;;;;;17.33;37.71;97087.46;105225;1284;1443454;-82
2022/04/30 15:52:57;;;;;;;10.90;6.40;;;;;;;17.49;37.64;97092.73;106061;1284;145895;-83
2022/04/30 15:55:29;;;;;;;10.50;6.70;;;;;;;17.69;37.34;97083.27;102019;1285;3428531;-82
2022/04/30 15:58:02;;;;;;;9.90;6.50;;;;;;;18.07;37.60;97085.42;104731;1284;1963829;-82
2022/04/30 16:00:35;;;;;;;8.60;5.90;;;;;;;18.54;37.35;97086.38;101351;1282;1986137;-83
2022/04/30 16:03:06;;;;;;;9.20;5.90;;;;;;;18.97;36.61;97084.45;104881;1284;1838326;-82
2022/04/30 16:05:38;;;;;;;9.00;6.30;;;;;;;19.19;36.08;97088.88;105006;1283;2091677;-83
2022/04/30 16:08:10;;;;;;;9.40;5.80;;;;;;;19.15;35.80;97086.80;104199;1284;1891485;-83
2022/04/30 17:41:10;;;;;;;12.70;7.50;;;;;;;13.64;43.34;97099.52;102022;1314;1816463;-78
2022/04/30 17:43:42;;;;;;;14.90;10.50;;;;;;;13.45;43.69;97100.11;106134;1286;98128;-78
2022/04/30 17:46:13;;;;;;;12.40;8.70;;;;;;;13.33;43.74;97098.92;105811;1286;160405;-76
2022/04/30 17:48:44;;;;;;;10.80;7.70;;;;;;;13.19;44.17;97105.02;106456;1281;95468;-76
2022/04/30 17:51:16;;;;;;;13.50;9.30;;;;;;;13.08;44.19;97107.57;106314;1278;263128;-77
2022/04/30 17:53:47;;;;;;;16.90;10.00;;;;;;;12.96;44.79;97105.50;105016;1276;1925288;-77
2022/04/30 17:56:22;;;;;;;14.00;10.40;;;;;;;12.95;44.81;97104.18;105724;1276;1450000;-78
2022/04/30 17:58:53;;;;;;;14.20;9.30;;;;;;;12.87;44.95;97108.66;105072;1276;1784977;-79
2022/04/30 18:01:28;;;;;;;14.30;9.30;;;;;;;12.73;45.19;97110.92;103971;1276;2122527;-81
2022/04/30 18:04:01;;;;;;;15.10;9.40;;;;;;;12.52;45.12;97110.82;105428;1276;2076535;-81
2022/04/30 18:10:16;;;;;;;16.40;10.30;;;;;;;12.00;45.76;97114.73;106908;1276;143343;-78
2022/04/30 18:12:48;;;;;;;18.10;11.10;;;;;;;11.85;46.07;97113.05;105632;1276;1786892;-78
2022/04/30 18:15:21;;;;;;;20.80;11.60;;;;;;;11.76;46.39;97115.73;106891;1276;116037;-78
2022/04/30 18:17:53;;;;;;;35.40;23.60;;;;;;;11.65;46.91;97120.02;102062;1276;6386730;-78
2022/04/30 18:20:25;;;;;;;13.10;9.70;;;;;;;11.57;46.83;97119.05;106754;1274;105668;-78
2022/04/30 18:22:57;;;;;;;15.50;8.50;;;;;;;11.43;47.08;97125.78;106715;1276;118881;-77
2022/04/30 18:25:29;;;;;;;13.90;8.10;;;;;;;11.30;47.24;97128.48;106770;1276;103996;-78
2022/04/30 18:28:00;;;;;;;11.80;6.90;;;;;;;11.20;47.43;97132.38;106973;1276;161997;-78
2022/04/30 18:30:31;;;;;;;9.10;7.10;;;;;;;11.11;47.59;97134.78;107182;1276;97630;-77
2022/04/30 18:33:04;;;;;;;13.00;9.70;;;;;;;11.01;47.78;97138.68;105965;1276;1478618;-78
2022/04/30 18:35:35;;;;;;;15.30;9.40;;;;;;;10.98;48.06;97139.48;106071;1271;1208857;-77
2022/04/30 18:38:07;;;;;;;13.00;10.10;;;;;;;10.98;48.45;97139.64;106931;1270;93300;-77
2022/04/30 18:40:38;;;;;;;12.80;8.40;;;;;;;10.98;48.43;97138.84;107133;1271;195023;-77
2022/04/30 18:43:11;;;;;;;8.80;6.70;;;;;;;10.95;48.98;97137.34;107406;1272;55022;-77
2022/04/30 18:45:43;;;;;;;11.50;7.30;;;;;;;10.86;48.79;97139.44;107095;1273;157830;-77
2022/04/30 18:48:14;;;;;;;10.30;6.30;;;;;;;10.62;48.95;97146.02;106913;1272;185870;-77
2022/04/30 18:50:45;;;;;;;9.60;5.90;;;;;;;10.28;50.03;97144.32;106907;1271;118764;-77
2022/04/30 18:53:19;;;;;;;10.60;6.30;;;;;;;9.79;50.81;97146.09;106866;1273;140659;-77
2022/04/30 19:01:31;;;;;;;11.40;6.60;;;;;;;9.64;51.11;97152.44;105739;1273;1969492;-78
2022/04/30 19:04:03;;;;;;;9.40;6.40;;;;;;;9.65;51.27;97152.60;106282;1270;1265114;-78
2022/04/30 19:06:36;;;;;;;10.60;6.50;;;;;;;9.67;51.37;97150.52;106986;1271;85677;-78
2022/04/30 19:09:08;;;;;;;9.70;6.20;;;;;;;9.63;51.37;97152.00;106742;1271;239823;-78
2022/04/30 19:11:41;;;;;;;12.30;7.00;;;;;;;9.55;51.31;97153.06;105462;1272;2173360;-77
2022/04/30 19:14:13;;;;;;;10.10;6.40;;;;;;;9.54;51.05;97152.86;107077;1271;75467;-78
2022/04/30 19:16:47;;;;;;;8.10;6.50;;;;;;;9.57;51.10;97157.22;105563;1271;1806377;-77
2022/04/30 19:19:21;;;;;;;9.40;6.20;;;;;;;9.55;51.52;97155.10;106700;1271;233397;-77
2022/04/30 19:21:52;;;;;;;8.60;6.20;;;;;;;9.41;51.49;97158.10;105895;1271;1905759;-77
2022/04/30 19:24:24;;;;;;;11.70;6.70;;;;;;;9.33;51.49;97158.15;107240;1270;161658;-78
2022/04/30 19:26:58;;;;;;;10.60;7.70;;;;;;;9.25;51.69;97160.21;106186;1272;1520561;-78
2022/04/30 19:29:32;;;;;;;11.40;8.40;;;;;;;9.15;52.19;97155.30;104301;1270;1848725;-78
2022/04/30 19:32:06;;;;;;;16.20;10.70;;;;;;;9.20;52.61;97151.11;105984;1271;1903468;-78
2022/04/30 19:34:39;;;;;;;11.00;7.50;;;;;;;9.29;52.59;97150.84;106764;1271;186462;-78
2022/04/30 19:37:11;;;;;;;9.40;5.60;;;;;;;9.27;52.55;97148.66;105526;1271;1801535;-79
2022/04/30 19:39:46;;;;;;;9.10;5.90;;;;;;;8.96;52.86;97147.34;107129;1272;147425;-80
2022/04/30 19:42:17;;;;;;;9.80;6.00;;;;;;;8.63;53.33;97151.43;107130;1271;175276;-79
2022/04/30 19:44:54;;;;;;;9.00;5.60;;;;;;;8.44;53.85;97154.96;107330;1271;115611;-80
2022/04/30 19:47:29;;;;;;;7.30;5.10;;;;;;;8.37;54.42;97148.88;107211;1271;156877;-82
2022/04/30 19:50:02;;;;;;;9.70;6.20;;;;;;;8.39;54.61;97144.25;103700;1270;2568402;-82
2022/04/30 19:52:33;;;;;;;9.30;6.80;;;;;;;8.41;54.80;97142.73;105793;1271;1766370;-82
2022/04/30 19:55:05;;;;;;;10.80;7.00;;;;;;;8.42;54.53;97145.59;106165;1270;1321700;-81
2022/04/30 19:57:42;;;;;;;12.50;6.70;;;;;;;8.45;54.70;97149.52;103963;1272;2076831;-81
2022/04/30 20:00:24;;;;;;;10.10;7.30;;;;;;;8.48;54.62;97149.57;107039;1270;129960;-78
2022/04/30 20:02:56;;;;;;;11.90;7.20;;;;;;;8.49;54.56;97152.21;104731;1270;3287616;-82
2022/04/30 20:05:30;;;;;;;13.00;7.70;;;;;;;8.42;54.66;97148.19;107084;1270;149885;-81
2022/04/30 20:08:05;;;;;;;11.80;7.50;;;;;;;8.39;54.71;97147.14;106071;1271;1585234;-79
2022/04/30 20:19:22;;;;;;;12.00;7.70;;;;;;;8.26;54.90;97143.63;105989;1270;1911874;-79
2022/04/30 20:21:56;;;;;;;12.30;7.60;;;;;;;8.12;55.01;97146.13;107275;1270;174636;-80
2022/04/30 20:24:29;;;;;;;13.00;8.50;;;;;;;8.02;55.60;97144.60;106156;1271;333913;-80
2022/04/30 20:27:04;;;;;;;14.70;8.50;;;;;;;8.05;55.57;97146.64;104852;1270;1829339;-78
2022/04/30 20:29:36;;;;;;;13.90;8.70;;;;;;;8.13;55.83;97143.59;106842;1273;301472;-79
2022/04/30 20:37:55;;;;;;;11.10;8.00;;;;;;;8.09;55.87;97146.52;106092;1270;285283;-78
2022/04/30 20:40:29;;;;;;;13.60;7.60;;;;;;;8.05;55.99;97148.02;105583;1273;571331;-79
2022/04/30 20:43:02;;;;;;;13.20;7.80;;;;;;;8.04;56.24;97145.05;106122;1274;257526;-78
2022/04/30 20:45:34;;;;;;;12.70;8.50;;;;;;;8.03;56.05;97141.35;106793;1274;125044;-78
2022/04/30 20:48:11;;;;;;;14.00;9.30;;;;;;;8.08;55.99;97142.55;106147;1275;347322;-77
2022/04/30 20:50:45;;;;;;;13.70;9.70;;;;;;;8.15;56.08;97143.50;106889;1274;171411;-77
2022/04/30 20:53:18;;;;;;;10.90;7.50;;;;;;;8.12;56.20;97144.80;106278;1274;270043;-76
2022/04/30 20:55:50;;;;;;;11.70;7.60;;;;;;;7.97;57.07;97146.66;106410;1274;287537;-76
2022/04/30 20:58:24;;;;;;;13.10;8.40;;;;;;;7.69;57.43;97149.09;104441;1273;1966191;-77
2022/04/30 21:01:01;;;;;;;14.10;9.70;;;;;;;7.54;57.55;97146.10;106209;1273;300351;-77
2022/04/30 21:03:33;;;;;;;16.80;12.10;;;;;;;7.59;57.63;97145.42;105778;1273;363869;-77
2022/04/30 21:06:09;;;;;;;14.90;8.90;;;;;;;7.69;57.45;97144.39;105222;1273;1941233;-77
2022/04/30 21:08:44;;;;;;;12.30;8.70;;;;;;;7.76;57.53;97141.41;104188;1273;2750170;-77
2022/04/30 21:11:17;;;;;;;12.50;8.70;;;;;;;7.71;57.37;97139.13;105869;1273;285060;-76
2022/04/30 21:13:49;;;;;;;12.90;8.20;;;;;;;7.68;57.47;97137.31;105144;1274;1953458;-77
2022/04/30 21:16:22;;;;;;;9.40;7.10;;;;;;;7.59;58.34;97135.94;106131;1274;283539;-77
2022/04/30 21:18:55;;;;;;;11.00;6.90;;;;;;;7.35;58.99;97135.00;106464;1273;194957;-77
2022/04/30 21:21:27;;;;;;;12.70;8.50;;;;;;;7.29;58.60;97131.65;106137;1274;260363;-77
2022/04/30 21:23:59;;;;;;;13.70;10.80;;;;;;;7.42;58.52;97133.23;104712;1273;1928072;-77
2022/04/30 21:26:38;;;;;;;15.90;12.30;;;;;;;7.46;58.47;97134.15;104565;1274;2117663;-76
2022/04/30 21:29:12;;;;;;;10.90;9.20;;;;;;;7.50;58.52;97133.61;106799;1273;240266;-77
2022/04/30 21:31:45;;;;;;;10.80;7.80;;;;;;;7.50;58.64;97134.88;106531;1274;170120;-75
2022/04/30 21:34:19;;;;;;;10.60;6.90;;;;;;;7.43;58.90;97134.05;106619;1275;195497;-76
2022/04/30 21:36:59;;;;;;;10.80;6.80;;;;;;;7.31;59.66;97132.36;106587;1273;162444;-77
2022/04/30 21:39:30;;;;;;;12.00;7.30;;;;;;;7.05;59.69;97136.70;106569;1271;201313;-76
2022/04/30 21:42:03;;;;;;;11.60;8.30;;;;;;;7.07;60.06;97133.48;107004;1271;122262;-77
2022/04/30 21:44:39;;;;;;;11.50;7.30;;;;;;;7.13;59.94;97135.50;106901;1271;155686;-76
2022/04/30 21:47:11;;;;;;;13.40;7.60;;;;;;;7.10;60.36;97132.40;107109;1271;140545;-76
2022/04/30 21:49:42;;;;;;;13.30;8.70;;;;;;;7.02;60.48;97132.55;107300;1270;71884;-77
2022/04/30 21:52:13;;;;;;;11.60;7.60;;;;;;;7.06;60.95;97131.66;107557;1270;52559;-75
2022/04/30 22:00:24;;;;;;;;;;;;;;;6.71;61.88;97133.04;104304;1271;2071583;-77
2022/04/30 22:02:55;;;;;;;12.50;7.30;;;;;;;6.85;61.56;97134.15;107467;1271;31145;-77
2022/04/30 22:05:26;;;;;;;11.20;7.50;;;;;;;6.98;61.27;97132.77;107115;1270;92423;-77
2022/04/30 22:07:58;;;;;;;12.20;8.20;;;;;;;7.02;61.02;97133.18;107358;1270;45054;-76
2022/04/30 22:10:29;;;;;;;10.90;8.30;;;;;;;7.09;60.93;97132.23;107351;1270;50729;-76
2022/04/30 22:13:01;;;;;;;12.20;8.30;;;;;;;7.15;60.46;97134.67;107164;1273;72939;-76
2022/04/30 22:15:32;;;;;;;14.90;10.00;;;;;;;7.17;60.49;97131.16;107390;1271;45159;-76
2022/04/30 22:18:04;;;;;;;17.60;14.60;;;;;;;7.08;60.33;97131.17;107325;1270;33577;-76
2022/04/30 22:20:36;;;;;;;14.60;11.70;;;;;;;7.11;60.52;97131.41;107216;1270;68143;-76
2022/04/30 22:23:07;;;;;;;14.40;12.20;;;;;;;7.23;60.68;97128.30;107199;1270;82278;-76
2022/04/30 22:25:39;;;;;;;11.30;8.10;;;;;;;7.32;60.40;97126.10;107449;1271;32883;-78
2022/04/30 22:28:10;;;;;;;13.40;8.70;;;;;;;7.27;60.12;97125.55;105922;1271;2061158;-77
2022/04/30 22:30:41;;;;;;;11.50;8.20;;;;;;;7.19;60.08;97128.67;107365;1270;43029;-77
2022/04/30 22:33:12;;;;;;;11.90;8.50;;;;;;;7.14;60.01;97126.02;106023;1271;1276766;-77
2022/04/30 22:35:44;;;;;;;12.50;8.40;;;;;;;7.11;59.86;97123.02;106872;1271;164999;-75
2022/04/30 22:38:15;;;;;;;13.20;8.60;;;;;;;7.08;60.02;97119.83;106677;1270;178474;-76
2022/04/30 22:43:36;;;;;;;10.00;7.70;;;;;;;6.88;60.61;97116.38;102059;1270;2384774;-77
2022/04/30 22:46:08;;;;;;;12.60;8.00;;;;;;;6.83;60.75;97113.30;103324;1271;2031700;-77
2022/04/30 22:48:40;;;;;;;12.00;8.00;;;;;;;6.84;60.80;97110.84;105016;1270;2054813;-77
2022/04/30 22:51:15;;;;;;;12.60;8.60;;;;;;;6.68;61.28;97113.08;105539;1271;1255564;-77
2022/04/30 22:53:51;;;;;;;10.80;8.10;;;;;;;6.54;61.36;97112.66;103040;1271;2585282;-77
2022/04/30 22:56:23;;;;;;;16.90;12.60;;;;;;;6.51;61.55;97114.20;104995;1271;1591045;-77
2022/04/30 22:58:55;;;;;;;15.50;10.70;;;;;;;6.61;61.55;97116.29;102881;1271;2677073;-77
2022/04/30 23:01:26;;;;;;;13.50;9.80;;;;;;;6.70;61.69;97115.73;106320;1271;199599;-77
2022/04/30 23:03:58;;;;;;;13.10;10.00;;;;;;;6.68;61.37;97113.61;106851;1271;216680;-77
2022/04/30 23:06:30;;;;;;;12.90;9.50;;;;;;;6.66;61.38;97109.46;107296;1271;80399;-78
2022/04/30 23:09:02;;;;;;;10.20;8.30;;;;;;;6.65;61.52;97107.76;107331;1270;85147;-77
2022/04/30 23:11:35;;;;;;;12.60;9.10;;;;;;;6.52;62.26;97103.61;104515;1271;2781655;-77
2022/04/30 23:14:06;;;;;;;12.90;8.50;;;;;;;6.37;62.75;97099.06;107075;1271;88927;-77
2022/04/30 23:16:37;;;;;;;12.40;8.60;;;;;;;6.31;63.11;97101.05;105078;1271;2042271;-77
2022/04/30 23:19:09;;;;;;;13.50;9.00;;;;;;;6.35;63.08;97099.45;106783;1271;219704;-77
2022/04/30 23:21:40;;;;;;;13.10;8.70;;;;;;;6.44;62.72;97095.95;106018;1271;427080;-77
2022/04/30 23:24:12;;;;;;;12.70;9.20;;;;;;;6.57;62.50;97093.88;106577;1271;212033;-77
2022/04/30 23:26:43;;;;;;;12.70;9.40;;;;;;;6.64;62.08;97094.12;106668;1271;217442;-77
2022/04/30 23:29:15;;;;;;;13.40;9.20;;;;;;;6.67;61.97;97090.52;107268;1271;127929;-78
2022/04/30 23:31:50;;;;;;;11.60;8.50;;;;;;;6.61;62.01;97093.27;104879;1271;2171241;-77
2022/04/30 23:34:22;;;;;;;15.20;9.00;;;;;;;6.51;62.60;97091.23;104832;1271;2104218;-77
2022/04/30 23:36:54;;;;;;;11.50;8.40;;;;;;;6.46;62.71;97092.48;106471;1271;276326;-78
2022/04/30 23:39:27;;;;;;;10.00;8.60;;;;;;;6.48;62.69;97091.55;106038;1271;263270;-78
2022/04/30 23:41:59;;;;;;;12.60;8.70;;;;;;;6.44;62.76;97087.98;106786;1273;137041;-77
2022/04/30 23:44:30;;;;;;;11.60;8.20;;;;;;;6.34;63.39;97089.53;106721;1271;148582;-77
2022/04/30 23:47:06;;;;;;;11.80;8.60;;;;;;;6.17;64.78;97087.67;104945;1271;2611066;-77
2022/04/30 23:49:37;;;;;;;11.50;8.10;;;;;;;6.02;65.35;97090.67;106728;1271;158536;-77
2022/04/30 23:52:10;;;;;;;12.70;8.60;;;;;;;6.02;65.00;97087.08;106352;1271;269234;-77
2022/04/30 23:54:42;;;;;;;14.80;10.00;;;;;;;6.10;64.79;97091.51;105527;1271;1534217;-77
2022/04/30 23:57:15;;;;;;;12.70;8.80;;;;;;;6.15;64.49;97092.59;106220;1271;292966;-76
2022/04/30 23:59:48;;;;;;;11.40;9.40;;;;;;;6.16;64.26;97093.23;104218;1272;2438242;-76
